createdAt,value
2022-10-18T00:01:51.888Z,25.83
2022-10-18T00:04:54.847Z,25.83
2022-10-18T00:07:57.670Z,28.15
2022-10-18T00:11:00.389Z,32.00
2022-10-18T00:14:03.214Z,21.70
2022-10-18T00:17:06.029Z,25.13
2022-10-18T00:20:11.660Z,24.35
2022-10-18T00:23:14.499Z,27.90
2022-10-18T00:26:20.976Z,30.00
2022-10-18T00:29:24.104Z,28.87
2022-10-18T00:32:27.708Z,22.58
2022-10-18T00:35:30.664Z,26.77
2022-10-18T00:38:33.376Z,29.92
2022-10-18T00:41:38.284Z,26.00
2022-10-18T00:44:41.009Z,30.53
2022-10-18T00:47:48.208Z,23.40
2022-10-18T00:50:53.137Z,31.58
2022-10-18T00:53:55.848Z,26.98
2022-10-18T00:56:59.094Z,26.52
2022-10-18T01:00:02.620Z,27.07
2022-10-18T01:03:06.045Z,25.27
2022-10-18T01:06:09.658Z,25.90
2022-10-18T01:09:32.577Z,28.50
2022-10-18T01:12:56.879Z,29.15
2022-10-18T01:16:17.826Z,29.83
2022-10-18T01:19:46.938Z,25.70
2022-10-18T01:23:04.822Z,29.60
2022-10-18T01:26:29.400Z,30.05
2022-10-18T01:29:57.057Z,30.20
2022-10-18T01:33:11.463Z,29.47
2022-10-18T01:36:29.699Z,31.83
2022-10-18T01:39:38.372Z,27.77
2022-10-18T01:42:41.257Z,26.42
2022-10-18T01:45:44.035Z,27.67
2022-10-18T01:48:47.679Z,25.57
2022-10-18T01:51:50.709Z,25.80
2022-10-18T01:54:55.830Z,29.35
2022-10-18T01:58:28.181Z,25.27
2022-10-18T02:01:49.144Z,28.83
2022-10-18T02:04:59.212Z,22.63
2022-10-18T02:08:22.787Z,25.77
2022-10-18T02:11:29.699Z,27.30
2022-10-18T02:14:33.389Z,26.42
2022-10-18T02:17:37.993Z,28.13
2022-10-18T02:20:42.232Z,27.33
2022-10-18T02:23:46.956Z,25.45
2022-10-18T02:26:50.106Z,27.13
2022-10-18T02:29:53.307Z,29.38
2022-10-18T02:33:04.519Z,29.38
2022-10-18T02:36:18.373Z,28.73
2022-10-18T02:39:29.694Z,27.95
2022-10-18T02:42:37.509Z,27.52
2022-10-18T02:45:40.558Z,32.67
2022-10-18T02:48:43.321Z,30.83
2022-10-18T02:51:46.444Z,29.57
2022-10-18T02:54:49.155Z,31.63
2022-10-18T02:57:52.351Z,28.02
2022-10-18T03:00:58.269Z,27.55
2022-10-18T03:04:02.015Z,27.13
2022-10-18T03:07:04.882Z,27.27
2022-10-18T03:10:08.226Z,28.20
2022-10-18T03:13:11.072Z,26.50
2022-10-18T03:16:13.971Z,28.38
2022-10-18T03:19:16.757Z,24.57
2022-10-18T03:22:19.644Z,27.87
2022-10-18T03:25:22.412Z,28.08
2022-10-18T03:28:25.311Z,29.25
2022-10-18T03:31:28.369Z,25.92
2022-10-18T03:34:31.133Z,32.33
2022-10-18T03:37:34.026Z,31.70
2022-10-18T03:40:37.294Z,27.95
2022-10-18T03:43:40.508Z,27.52
2022-10-18T03:46:43.246Z,28.73
2022-10-18T03:49:46.028Z,26.70
2022-10-18T03:52:48.740Z,32.43
2022-10-18T03:55:53.086Z,28.35
2022-10-18T03:58:57.243Z,27.58
2022-10-18T04:02:00.226Z,30.75
2022-10-18T04:05:03.259Z,28.38
2022-10-18T04:08:06.071Z,28.60
2022-10-18T04:11:10.946Z,26.80
2022-10-18T04:14:13.835Z,26.40
2022-10-18T04:17:16.806Z,26.85
2022-10-18T04:20:20.278Z,29.10
2022-10-18T04:23:23.136Z,33.77
2022-10-18T04:26:26.179Z,28.33
2022-10-18T04:29:28.990Z,32.97
2022-10-18T04:32:31.895Z,26.27
2022-10-18T04:35:34.620Z,33.53
2022-10-18T04:38:37.371Z,26.73
2022-10-18T04:41:40.183Z,27.35
2022-10-18T04:44:43.006Z,29.42
2022-10-18T04:47:45.734Z,27.92
2022-10-18T04:50:49.998Z,29.27
2022-10-18T04:53:52.780Z,31.70
2022-10-18T04:56:55.727Z,32.85
2022-10-18T04:59:58.700Z,33.88
2022-10-18T05:03:01.420Z,32.83
2022-10-18T05:06:05.530Z,31.23
2022-10-18T05:09:08.492Z,31.70
2022-10-18T05:12:11.271Z,33.88
2022-10-18T05:15:14.138Z,37.45
2022-10-18T05:18:17.021Z,40.72
2022-10-18T05:21:19.869Z,38.00
2022-10-18T05:24:25.473Z,36.87
2022-10-18T05:27:30.621Z,44.67
2022-10-18T05:30:33.999Z,40.80
2022-10-18T05:33:37.785Z,35.65
2022-10-18T05:36:40.658Z,32.85
2022-10-18T05:39:43.525Z,37.10
2022-10-18T05:42:46.272Z,37.10
2022-10-18T05:45:50.397Z,33.50
2022-10-18T05:48:53.155Z,30.80
2022-10-18T05:51:58.886Z,31.17
2022-10-18T05:55:03.854Z,30.30
2022-10-18T05:58:06.924Z,35.35
2022-10-18T06:01:11.770Z,36.42
2022-10-18T06:04:14.939Z,33.30
2022-10-18T06:07:17.715Z,26.92
2022-10-18T06:10:23.522Z,27.63
2022-10-18T06:13:26.644Z,29.05
2022-10-18T06:16:32.397Z,32.00
2022-10-18T06:19:39.867Z,35.63
2022-10-18T06:22:43.883Z,30.93
2022-10-18T06:25:46.726Z,33.77
2022-10-18T06:28:50.511Z,29.63
2022-10-18T06:31:53.589Z,30.65
2022-10-18T06:35:03.230Z,34.85
2022-10-18T06:38:06.439Z,30.13
2022-10-18T06:41:10.446Z,28.53
2022-10-18T06:44:14.573Z,25.70
2022-10-18T06:47:17.412Z,25.73
2022-10-18T06:50:20.295Z,22.48
2022-10-18T06:53:25.547Z,28.33
2022-10-18T06:56:28.766Z,24.03
2022-10-18T06:59:31.885Z,24.15
2022-10-18T07:02:35.010Z,21.95
2022-10-18T07:05:38.518Z,20.77
2022-10-18T07:08:44.894Z,21.80
2022-10-18T07:11:48.034Z,19.27
2022-10-18T07:14:50.983Z,18.50
2022-10-18T07:17:53.736Z,17.98
2022-10-18T07:20:57.448Z,16.58
2022-10-18T07:24:00.242Z,19.48
2022-10-18T07:27:03.087Z,19.07
2022-10-18T07:30:07.814Z,15.75
2022-10-18T07:33:11.473Z,22.42
2022-10-18T07:36:15.888Z,21.15
2022-10-18T07:39:19.281Z,18.17
2022-10-18T07:42:22.380Z,19.37
2022-10-18T07:45:25.506Z,24.40
2022-10-18T07:48:28.934Z,18.48
2022-10-18T07:51:33.004Z,16.38
2022-10-18T07:54:35.916Z,19.02
2022-10-18T07:57:38.749Z,19.40
2022-10-18T08:00:42.154Z,20.40
2022-10-18T08:03:45.034Z,22.02
2022-10-18T08:06:47.953Z,18.10
2022-10-18T08:09:50.891Z,21.30
2022-10-18T08:12:54.519Z,21.50
2022-10-18T08:16:06.295Z,19.80
2022-10-18T08:19:09.172Z,20.55
2022-10-18T08:22:11.967Z,19.38
2022-10-18T08:25:15.639Z,20.05
2022-10-18T08:28:18.348Z,28.77
2022-10-18T08:31:21.162Z,16.92
2022-10-18T08:34:24.149Z,14.95
2022-10-18T08:37:27.010Z,14.98
2022-10-18T08:40:34.859Z,17.65
2022-10-18T08:43:47.337Z,18.90
2022-10-18T08:46:53.095Z,17.73
2022-10-18T08:50:07.707Z,21.88
2022-10-18T08:53:21.121Z,14.43
2022-10-18T08:56:27.946Z,19.65
2022-10-18T09:09:41.906Z,15.02
2022-10-18T09:13:55.099Z,20.85
2022-10-18T09:17:27.297Z,14.50
2022-10-18T09:21:00.245Z,12.07
2022-10-18T09:24:17.140Z,14.38
2022-10-18T09:27:22.718Z,15.68
2022-10-18T09:30:49.897Z,16.48
2022-10-18T09:34:06.349Z,14.65
2022-10-18T09:37:16.285Z,16.90
2022-10-18T09:40:26.893Z,12.82
2022-10-18T09:44:00.782Z,16.92
2022-10-18T09:47:16.853Z,17.92
2022-10-18T09:50:28.122Z,16.15
2022-10-18T09:53:37.103Z,10.97
2022-10-18T09:56:47.619Z,16.02
2022-10-18T09:59:55.057Z,17.42
2022-10-18T10:03:00.622Z,12.07
2022-10-18T10:06:16.809Z,12.10
2022-10-18T10:09:26.965Z,13.30
2022-10-18T10:12:32.698Z,12.32
2022-10-18T10:15:38.206Z,11.48
2022-10-18T10:18:43.879Z,10.15
2022-10-18T10:21:50.328Z,13.00
2022-10-18T10:24:54.984Z,13.10
2022-10-18T10:28:20.394Z,10.23
2022-10-18T10:31:46.035Z,9.15
2022-10-18T10:34:49.424Z,12.65
2022-10-18T10:37:54.652Z,17.25
2022-10-18T10:40:59.791Z,20.27
2022-10-18T10:44:08.848Z,11.88
2022-10-18T10:47:33.248Z,27.05
2022-10-18T10:50:54.413Z,14.60
2022-10-18T10:54:05.994Z,15.60
2022-10-18T10:57:12.749Z,11.80
2022-10-18T11:00:34.396Z,18.77
2022-10-18T11:03:37.435Z,9.90
2022-10-18T11:06:55.993Z,12.15
2022-10-18T11:10:12.848Z,12.98
2022-10-18T11:13:31.663Z,9.10
2022-10-18T11:17:07.698Z,11.05
2022-10-18T11:20:23.561Z,10.82
2022-10-18T11:23:32.374Z,11.13
2022-10-18T11:27:01.383Z,15.10
2022-10-18T11:30:35.087Z,12.03
2022-10-18T11:34:10.073Z,15.18
2022-10-18T11:38:06.451Z,10.90
2022-10-18T11:41:31.793Z,14.30
2022-10-18T11:45:02.951Z,17.38
2022-10-18T11:48:06.218Z,12.73
2022-10-18T11:51:34.169Z,12.43
2022-10-18T11:55:05.325Z,12.48
2022-10-18T11:58:18.445Z,10.25
2022-10-18T12:01:33.331Z,10.77
2022-10-18T12:04:53.062Z,14.20
2022-10-18T12:08:47.602Z,8.30
2022-10-18T12:12:02.757Z,11.13
2022-10-18T12:15:20.313Z,8.75
2022-10-18T12:18:30.407Z,9.85
2022-10-18T12:21:34.668Z,11.10
2022-10-18T12:24:38.037Z,8.95
2022-10-18T12:27:49.739Z,10.07
2022-10-18T12:31:27.269Z,7.05
2022-10-18T12:34:43.990Z,10.80
2022-10-18T12:38:00.133Z,8.30
2022-10-18T12:41:04.410Z,10.32
2022-10-18T12:44:25.669Z,10.88
2022-10-18T12:47:30.458Z,7.25
2022-10-18T12:50:37.790Z,8.82
2022-10-18T12:53:42.414Z,10.13
2022-10-18T12:56:47.705Z,8.40
2022-10-18T12:59:50.758Z,10.05
2022-10-18T13:03:19.135Z,10.32
2022-10-18T13:06:23.652Z,11.57
2022-10-18T13:09:30.988Z,7.97
2022-10-18T13:12:58.876Z,6.53
2022-10-18T13:16:24.025Z,7.53
2022-10-18T13:19:32.876Z,10.38
2022-10-18T13:23:08.294Z,13.02
2022-10-18T13:26:26.927Z,9.57
2022-10-18T13:29:40.979Z,9.18
2022-10-18T13:33:08.656Z,7.50
2022-10-18T13:36:22.583Z,11.13
2022-10-18T13:39:27.312Z,8.80
2022-10-18T13:42:33.007Z,10.93
2022-10-18T13:45:54.700Z,11.27
2022-10-18T13:49:06.629Z,13.07
2022-10-18T13:52:27.607Z,8.45
2022-10-18T13:56:11.835Z,14.13
2022-10-18T13:59:37.852Z,12.57
2022-10-18T14:02:58.694Z,10.85
2022-10-18T14:06:10.471Z,9.77
2022-10-18T14:12:50.095Z,10.50
2022-10-18T14:16:00.261Z,8.63
2022-10-18T14:19:15.159Z,9.55
2022-10-18T14:22:54.923Z,9.55
2022-10-18T14:26:15.106Z,14.35
2022-10-18T14:29:20.731Z,9.38
2022-10-18T14:32:29.387Z,9.83
2022-10-18T14:35:35.843Z,9.38
2022-10-18T14:39:06.314Z,8.98
2022-10-18T14:42:20.884Z,15.00
2022-10-18T14:45:24.502Z,9.63
2022-10-18T14:48:27.455Z,11.47
2022-10-18T14:51:35.701Z,10.75
2022-10-18T14:54:38.883Z,16.00
2022-10-18T14:57:41.792Z,15.55
2022-10-18T15:00:48.478Z,9.65
2022-10-18T15:03:57.529Z,11.70
2022-10-18T15:07:06.872Z,14.95
2022-10-18T15:10:35.297Z,11.88
2022-10-18T15:13:48.034Z,14.93
2022-10-18T15:16:54.223Z,13.27
2022-10-18T15:20:06.232Z,15.03
2022-10-18T15:23:24.019Z,11.23
2022-10-18T15:26:30.939Z,10.77
2022-10-18T15:29:36.879Z,15.70
2022-10-18T15:32:49.096Z,12.80
2022-10-18T15:35:54.098Z,11.73
2022-10-18T15:39:18.561Z,12.60
2022-10-18T15:42:38.441Z,16.38
2022-10-18T15:49:18.511Z,11.65
2022-10-18T15:52:37.487Z,13.77
2022-10-18T15:55:45.420Z,12.15
2022-10-18T15:58:49.071Z,15.32
2022-10-18T16:01:52.165Z,12.18
2022-10-18T16:04:55.474Z,18.08
2022-10-18T16:07:58.426Z,14.87
2022-10-18T16:11:01.201Z,21.85
2022-10-18T16:14:03.982Z,15.93
2022-10-18T16:17:07.428Z,22.15
2022-10-18T16:20:20.329Z,17.52
2022-10-18T16:23:26.676Z,26.47
2022-10-18T16:26:29.806Z,30.73
2022-10-18T16:29:33.394Z,27.27
2022-10-18T16:32:36.146Z,26.60
2022-10-18T16:35:38.987Z,22.88
2022-10-18T16:38:42.165Z,28.40
2022-10-18T16:41:45.683Z,23.88
2022-10-18T16:44:49.256Z,30.08
2022-10-18T16:47:52.063Z,26.27
2022-10-18T16:50:56.847Z,27.25
2022-10-18T16:53:59.616Z,22.40
2022-10-18T16:57:02.468Z,26.08
2022-10-18T17:00:05.572Z,32.67
2022-10-18T17:03:10.133Z,46.47
2022-10-18T17:06:22.313Z,46.42
2022-10-18T17:09:25.137Z,69.33
2022-10-18T17:12:28.041Z,54.92
2022-10-18T17:15:32.946Z,50.28
2022-10-18T17:18:37.936Z,45.38
2022-10-18T17:21:40.734Z,53.38
2022-10-18T17:24:43.470Z,31.03
2022-10-18T17:27:46.982Z,36.95
2022-10-18T17:30:56.905Z,46.22
2022-10-18T17:34:02.172Z,51.72
2022-10-18T17:37:05.703Z,61.25
2022-10-18T17:40:09.874Z,78.70
2022-10-18T17:43:14.017Z,81.90
2022-10-18T17:46:18.001Z,81.55
2022-10-18T17:49:22.262Z,71.13
2022-10-18T17:52:25.246Z,67.13
2022-10-18T17:55:30.288Z,72.10
2022-10-18T17:58:33.529Z,61.70
2022-10-18T18:01:36.521Z,72.30
2022-10-18T18:04:39.380Z,72.72
2022-10-18T18:07:42.374Z,66.50
2022-10-18T18:10:45.375Z,60.37
2022-10-18T18:13:48.228Z,63.30
2022-10-18T18:16:51.216Z,53.95
2022-10-18T18:19:54.310Z,51.80
2022-10-18T18:22:57.096Z,62.75
2022-10-18T18:26:00.891Z,62.60
2022-10-18T18:29:04.181Z,54.83
2022-10-18T18:32:08.163Z,62.08
2022-10-18T18:35:11.893Z,64.45
2022-10-18T18:38:14.764Z,65.90
2022-10-18T18:41:23.210Z,59.70
2022-10-18T18:44:26.052Z,72.78
2022-10-18T18:47:28.839Z,115.03
2022-10-18T18:50:32.026Z,213.05
2022-10-18T18:53:35.124Z,186.20
2022-10-18T18:56:38.285Z,162.53
2022-10-18T18:59:41.247Z,162.75
2022-10-18T19:02:44.054Z,157.52
2022-10-18T19:05:46.841Z,163.88
2022-10-18T19:08:50.391Z,171.32
2022-10-18T19:11:55.698Z,178.77
2022-10-18T19:14:58.409Z,156.32
2022-10-18T19:18:01.273Z,141.15
2022-10-18T19:21:04.240Z,109.47
2022-10-18T19:24:07.575Z,98.00
2022-10-18T19:27:14.375Z,93.17
2022-10-18T19:30:19.929Z,78.97
2022-10-18T19:33:41.144Z,73.60
2022-10-18T19:36:48.867Z,67.05
2022-10-18T19:39:51.751Z,59.17
2022-10-18T19:42:54.511Z,48.67
2022-10-18T19:46:02.752Z,42.78
2022-10-18T19:49:05.786Z,55.08
2022-10-18T19:52:08.971Z,38.53
2022-10-18T19:55:11.824Z,38.78
2022-10-18T19:58:14.711Z,40.80
2022-10-18T20:01:18.700Z,43.38
2022-10-18T20:04:21.854Z,41.35
2022-10-18T20:07:24.704Z,38.30
2022-10-18T20:10:31.057Z,44.55
2022-10-18T20:13:34.130Z,45.00
2022-10-18T20:16:37.144Z,40.28
2022-10-18T20:19:40.021Z,35.00
2022-10-18T20:22:42.733Z,31.85
2022-10-18T20:25:58.604Z,27.73
2022-10-18T20:29:01.590Z,29.73
2022-10-18T20:32:04.537Z,25.35
2022-10-18T20:35:07.455Z,30.73
2022-10-18T20:38:10.321Z,25.92
2022-10-18T20:41:22.757Z,27.40
2022-10-18T20:44:27.005Z,26.23
2022-10-18T20:47:30.423Z,30.30
2022-10-18T20:50:33.963Z,29.20
2022-10-18T20:53:37.677Z,34.50
2022-10-18T20:56:40.500Z,35.22
2022-10-18T20:59:43.246Z,31.93
2022-10-18T21:02:46.019Z,41.15
2022-10-18T21:05:48.829Z,38.67
2022-10-18T21:08:57.005Z,34.67
2022-10-18T21:12:00.057Z,37.20
2022-10-18T21:15:02.876Z,31.37
2022-10-18T21:18:06.633Z,39.50
2022-10-18T21:21:16.168Z,55.38
2022-10-18T21:24:20.000Z,69.13
2022-10-18T21:27:25.931Z,68.03
2022-10-18T21:30:29.121Z,55.13
2022-10-18T21:33:31.862Z,57.78
2022-10-18T21:36:36.638Z,70.47
2022-10-18T21:39:39.350Z,59.85
2022-10-18T21:42:42.137Z,60.42
2022-10-18T21:45:44.934Z,66.20
2022-10-18T21:48:51.661Z,59.50
2022-10-18T21:51:54.483Z,57.10
2022-10-18T21:54:57.280Z,58.10
2022-10-18T21:58:00.108Z,58.63
2022-10-18T22:01:23.874Z,59.10
2022-10-18T22:04:26.735Z,59.50
2022-10-18T22:07:29.456Z,55.40
2022-10-18T22:10:33.577Z,51.60
2022-10-18T22:13:36.348Z,48.70
2022-10-18T22:16:39.335Z,51.93
2022-10-18T22:19:43.592Z,55.47
2022-10-18T22:22:46.552Z,43.10
2022-10-18T22:25:50.407Z,49.05
2022-10-18T22:29:02.387Z,42.78
2022-10-18T22:32:05.332Z,40.17
2022-10-18T22:35:08.101Z,42.47
2022-10-18T22:38:10.789Z,46.92
2022-10-18T22:41:13.842Z,42.08
2022-10-18T22:44:16.725Z,50.90
2022-10-18T22:47:19.550Z,46.57
2022-10-18T22:50:23.202Z,51.67
2022-10-18T22:53:27.115Z,47.60
2022-10-18T22:56:30.105Z,50.70
2022-10-18T22:59:33.524Z,45.22
2022-10-18T23:02:36.549Z,49.67
2022-10-18T23:05:41.058Z,65.82
2022-10-18T23:08:43.940Z,65.90
2022-10-18T23:11:48.303Z,76.18
2022-10-18T23:14:51.246Z,71.80
2022-10-18T23:17:55.050Z,63.87
2022-10-18T23:21:07.415Z,46.33
2022-10-18T23:24:10.248Z,52.08
2022-10-18T23:27:13.022Z,37.20
2022-10-18T23:30:25.363Z,33.40
2022-10-18T23:33:28.100Z,30.60
2022-10-18T23:36:33.163Z,37.83
2022-10-18T23:39:35.965Z,30.88
2022-10-18T23:42:38.949Z,26.00
2022-10-18T23:45:42.593Z,24.33
2022-10-18T23:48:46.362Z,23.20
2022-10-18T23:51:49.229Z,25.58
2022-10-18T23:54:51.918Z,21.08
2022-10-18T23:57:54.684Z,22.77
